Time;durP1;ratioP1;P1;durP2;ratioP2;P2;SDS_P1;SDS_P2;PMS_P1;PMS_P2;Temp;Humidity;BMP_temperature;BMP_pressure;BME280_temperature;BME280_humidity;BME280_pressure;Samples;Min_cycle;Max_cycle;Signal;HPM_P1;HPM_P2
2024/02/10 00:00:09;;;;;;;12.87;7.53;;;;;;;8.89;100.00;98596.06;6069155;23;20167;-76
2024/02/10 00:02:39;;;;;;;16.03;7.20;;;;;;;8.88;100.00;98597.97;6059763;23;20261;-76
2024/02/10 00:05:06;;;;;;;12.37;7.87;;;;;;;8.88;100.00;98600.59;6068436;23;20177;-76
2024/02/10 00:07:33;;;;;;;12.43;8.23;;;;;;;8.89;100.00;98598.69;6069009;23;20197;-75
2024/02/10 00:10:00;;;;;;;12.30;7.87;;;;;;;8.88;100.00;98586.66;6068649;23;20167;-76
2024/02/10 00:12:26;;;;;;;13.53;8.53;;;;;;;8.87;100.00;98595.69;6069913;23;20213;-76
2024/02/10 00:14:57;;;;;;;16.73;9.27;;;;;;;8.86;100.00;98597.53;6068871;23;20166;-76
2024/02/10 00:17:26;;;;;;;17.20;10.43;;;;;;;8.85;100.00;98593.41;6069599;23;20182;-76
2024/02/10 00:19:55;;;;;;;17.90;10.00;;;;;;;8.84;100.00;98593.75;6071085;23;20235;-76
2024/02/10 00:22:22;;;;;;;15.23;9.10;;;;;;;8.83;100.00;98598.28;6069831;23;20174;-76
2024/02/10 00:24:49;;;;;;;12.17;7.97;;;;;;;8.82;100.00;98599.41;6034026;23;20553;-76
2024/02/10 00:27:16;;;;;;;15.20;9.57;;;;;;;8.81;100.00;98597.88;6069472;23;20281;-76
2024/02/10 00:29:43;;;;;;;15.00;9.60;;;;;;;8.80;100.00;98593.72;6069574;23;20169;-76
2024/02/10 00:32:10;;;;;;;20.77;10.57;;;;;;;8.82;100.00;98601.28;6034342;23;20171;-75
2024/02/10 00:34:39;;;;;;;18.97;11.63;;;;;;;8.81;100.00;98595.25;6070549;23;20170;-76
2024/02/10 00:37:06;;;;;;;21.47;12.60;;;;;;;8.82;100.00;98596.78;6067025;23;20190;-76
2024/02/10 00:39:32;;;;;;;20.63;13.97;;;;;;;8.82;100.00;98596.78;6069727;23;20170;-76
2024/02/10 00:42:00;;;;;;;26.40;16.03;;;;;;;8.83;100.00;98593.03;6068900;23;20171;-76
2024/02/10 00:44:28;;;;;;;19.67;14.00;;;;;;;8.85;100.00;98592.66;6069001;23;20170;-76
2024/02/10 00:46:55;;;;;;;19.70;11.83;;;;;;;8.85;100.00;98596.03;6068220;23;20202;-76
2024/02/10 00:49:24;;;;;;;14.10;10.97;;;;;;;8.87;100.00;98590.41;6068728;23;20265;-76
2024/02/10 00:51:50;;;;;;;19.13;9.63;;;;;;;8.87;100.00;98596.44;6068573;23;20520;-76
2024/02/10 00:54:22;;;;;;;15.77;10.87;;;;;;;8.88;100.00;98592.69;6069626;23;20241;-77
2024/02/10 00:56:48;;;;;;;14.23;10.23;;;;;;;8.88;100.00;98592.69;6068920;23;20640;-77
2024/02/10 00:59:17;;;;;;;15.47;10.67;;;;;;;8.89;100.00;98593.44;6068296;23;20644;-76
2024/02/10 01:01:43;;;;;;;15.20;9.33;;;;;;;8.88;100.00;98586.66;6034583;23;20178;-76
2024/02/10 01:04:12;;;;;;;14.63;9.77;;;;;;;8.89;100.00;98598.69;6069332;23;20242;-76
2024/02/10 01:06:39;;;;;;;13.07;8.70;;;;;;;8.89;100.00;98588.16;6067941;23;20186;-76
2024/02/10 01:09:09;;;;;;;15.47;9.07;;;;;;;8.90;100.00;98603.59;6068592;23;20269;-76
2024/02/10 01:11:42;;;;;;;12.33;8.47;;;;;;;8.89;100.00;98599.47;6069893;23;20171;-76
2024/02/10 01:14:50;;;;;;;17.70;9.30;;;;;;;8.90;100.00;98593.06;6070187;23;20174;-77
2024/02/10 01:17:20;;;;;;;13.97;9.07;;;;;;;8.90;100.00;98595.72;6071109;23;20198;-76
2024/02/10 01:19:49;;;;;;;11.33;8.83;;;;;;;8.90;100.00;98587.81;6071583;23;20163;-76
2024/02/10 01:22:17;;;;;;;13.70;8.80;;;;;;;8.90;100.00;98589.72;6071369;23;20167;-76
2024/02/10 01:24:45;;;;;;;10.10;8.03;;;;;;;8.90;100.00;98587.81;6071503;23;20170;-76
2024/02/10 01:27:12;;;;;;;13.53;7.17;;;;;;;8.90;100.00;98587.06;6071076;23;20187;-75
2024/02/10 01:29:39;;;;;;;12.13;7.13;;;;;;;8.91;100.00;98599.84;6071703;23;20222;-76
2024/02/10 01:32:09;;;;;;;13.17;7.43;;;;;;;8.91;100.00;98585.94;6036380;23;20261;-77
2024/02/10 01:34:38;;;;;;;11.37;7.00;;;;;;;8.92;100.00;98600.63;6037485;23;20175;-76
2024/02/10 01:37:04;;;;;;;14.80;7.40;;;;;;;8.92;100.00;98598.00;6035473;23;20198;-75
2024/02/10 01:39:31;;;;;;;13.60;6.97;;;;;;;8.93;100.00;98588.97;6071496;23;20246;-76
2024/02/10 01:42:04;;;;;;;10.23;6.80;;;;;;;8.93;100.00;98586.34;6035870;23;20185;-76
2024/02/10 01:44:31;;;;;;;9.23;6.50;;;;;;;8.93;100.00;98581.84;6071578;23;20166;-76
2024/02/10 01:46:59;;;;;;;9.33;6.70;;;;;;;8.93;100.00;98584.47;6070292;23;20206;-76
2024/02/10 01:49:26;;;;;;;15.40;6.53;;;;;;;8.94;100.00;98585.22;6036549;23;20269;-76
2024/02/10 01:51:54;;;;;;;11.30;6.37;;;;;;;8.94;100.00;98583.34;6070857;23;20173;-76
2024/02/10 01:54:21;;;;;;;11.90;7.13;;;;;;;8.94;100.00;98578.09;6071059;23;20173;-76
2024/02/10 01:56:48;;;;;;;13.60;8.53;;;;;;;8.95;100.00;98579.59;6069973;23;20535;-76
2024/02/10 01:59:14;;;;;;;10.47;7.70;;;;;;;8.95;100.00;98579.59;6035129;23;20166;-76
2024/02/10 02:02:18;;;;;;;13.87;9.17;;;;;;;8.97;100.00;98580.00;6071633;23;20590;-76
2024/02/10 02:04:45;;;;;;;13.33;8.97;;;;;;;8.98;100.00;98586.00;6070069;23;20181;-76
2024/02/10 02:07:13;;;;;;;14.23;9.43;;;;;;;8.99;100.00;98582.25;6069060;23;20201;-76
2024/02/10 02:09:40;;;;;;;12.60;8.47;;;;;;;9.00;100.00;98595.06;6070958;23;20179;-76
2024/02/10 02:12:07;;;;;;;12.70;9.13;;;;;;;9.00;100.00;98594.31;6070096;23;20177;-75
2024/02/10 02:14:35;;;;;;;10.67;8.40;;;;;;;9.00;100.00;98587.16;6071056;23;20214;-76
2024/02/10 02:17:04;;;;;;;13.17;9.53;;;;;;;9.01;100.00;98593.19;6070112;23;20187;-76
2024/02/10 02:19:32;;;;;;;15.40;11.40;;;;;;;9.02;100.00;98594.69;6071298;23;20159;-76
2024/02/10 02:21:59;;;;;;;13.20;9.53;;;;;;;9.02;100.00;98592.84;6034970;23;20175;-76
2024/02/10 02:25:05;;;;;;;11.97;8.23;;;;;;;9.03;100.00;98594.34;6035457;23;20185;-76
2024/02/10 02:27:31;;;;;;;11.87;8.87;;;;;;;9.04;100.00;98590.59;6070494;23;20564;-76
2024/02/10 02:29:59;;;;;;;11.07;7.80;;;;;;;9.04;100.00;98593.22;6070162;23;20183;-76
2024/02/10 02:32:28;;;;;;;12.57;8.20;;;;;;;9.06;100.00;98592.88;6070884;23;20532;-76
2024/02/10 02:34:55;;;;;;;12.47;9.53;;;;;;;9.06;100.00;98596.22;6070328;23;20265;-76
2024/02/10 02:37:22;;;;;;;10.90;9.30;;;;;;;9.07;100.00;98597.75;6070255;23;20672;-76
2024/02/10 02:39:49;;;;;;;13.37;8.97;;;;;;;9.07;100.00;98583.84;6071285;23;20170;-76
2024/02/10 02:42:16;;;;;;;13.20;8.53;;;;;;;9.08;100.00;98599.28;6035165;23;20197;-76
2024/02/10 02:44:45;;;;;;;9.73;7.07;;;;;;;9.09;100.00;98594.75;6070343;23;20167;-76
2024/02/10 02:47:12;;;;;;;10.83;8.03;;;;;;;9.10;100.00;98588.38;6035229;23;20207;-76
2024/02/10 02:49:39;;;;;;;9.77;7.47;;;;;;;9.09;100.00;98590.25;6070896;23;20183;-76
2024/02/10 02:52:07;;;;;;;10.20;7.03;;;;;;;9.09;100.00;98586.84;6069978;23;20174;-76
2024/02/10 02:54:34;;;;;;;10.80;7.90;;;;;;;9.10;100.00;98586.50;6070814;23;20171;-76
2024/02/10 02:57:01;;;;;;;12.30;8.50;;;;;;;9.10;100.00;98585.72;6068400;23;20190;-76
2024/02/10 02:59:28;;;;;;;11.60;7.87;;;;;;;9.11;100.00;98593.28;6034924;23;20179;-76
2024/02/10 03:01:56;;;;;;;12.90;9.00;;;;;;;9.11;100.00;98574.84;6070348;23;20163;-76
2024/02/10 03:04:22;;;;;;;12.70;8.43;;;;;;;9.11;100.00;98587.25;6069374;23;20167;-75
2024/02/10 03:06:50;;;;;;;9.97;7.40;;;;;;;9.10;100.00;98575.97;6068591;23;20276;-76
2024/02/10 03:09:16;;;;;;;11.00;7.90;;;;;;;9.10;100.00;98586.50;6035348;23;20285;-76
2024/02/10 03:11:42;;;;;;;10.03;6.83;;;;;;;9.11;100.00;98574.84;6071314;23;20512;-75
2024/02/10 03:14:09;;;;;;;8.47;6.70;;;;;;;9.11;100.00;98582.00;6070957;23;20528;-76
2024/02/10 03:16:38;;;;;;;9.47;6.57;;;;;;;9.12;100.00;98578.25;6070930;23;20552;-76
2024/02/10 03:19:05;;;;;;;11.23;6.43;;;;;;;9.10;100.00;98573.34;6070632;23;20198;-75
2024/02/10 03:21:35;;;;;;;12.27;6.83;;;;;;;9.10;100.00;98570.69;6035637;23;20209;-76
2024/02/10 03:24:03;;;;;;;8.73;6.40;;;;;;;9.11;100.00;98585.38;6070268;23;20175;-76
2024/02/10 03:26:30;;;;;;;8.20;6.30;;;;;;;9.11;100.00;98582.00;6071149;23;20687;-76
2024/02/10 03:28:57;;;;;;;9.10;6.30;;;;;;;9.10;100.00;98578.59;6035735;23;20664;-75
2024/02/10 03:31:25;;;;;;;11.00;6.97;;;;;;;9.10;100.00;98580.47;6070916;23;20167;-76
2024/02/10 03:33:53;;;;;;;8.80;6.97;;;;;;;9.09;100.00;98582.34;6070165;23;20616;-76
2024/02/10 03:36:19;;;;;;;9.63;6.30;;;;;;;9.09;100.00;98582.34;6069863;23;20163;-76
2024/02/10 03:38:46;;;;;;;7.03;5.50;;;;;;;9.09;100.00;98587.63;6035336;23;20162;-76
2024/02/10 03:41:13;;;;;;;7.97;5.73;;;;;;;9.09;100.00;98586.84;6070799;23;20181;-76
2024/02/10 03:43:39;;;;;;;11.30;5.67;;;;;;;9.08;100.00;98582.72;6070593;23;20167;-76
2024/02/10 03:46:05;;;;;;;7.20;5.80;;;;;;;9.08;100.00;98580.09;6070215;23;20225;-76
2024/02/10 03:48:31;;;;;;;6.40;5.40;;;;;;;9.08;100.00;98569.56;6069893;23;20228;-77
2024/02/10 03:50:59;;;;;;;10.37;5.57;;;;;;;9.07;100.00;98574.03;6069823;23;20647;-76
2024/02/10 03:53:25;;;;;;;9.20;5.43;;;;;;;9.06;100.00;98577.06;6070547;23;20166;-76
2024/02/10 03:55:53;;;;;;;8.27;5.43;;;;;;;9.07;100.00;98570.69;6035298;23;20171;-76
2024/02/10 03:58:20;;;;;;;7.97;5.70;;;;;;;9.06;100.00;98564.63;6070349;23;20984;-76
2024/02/10 04:00:47;;;;;;;10.67;6.27;;;;;;;9.06;100.00;98558.63;6070355;23;20163;-76
2024/02/10 04:03:13;;;;;;;8.90;6.10;;;;;;;9.05;100.00;98555.25;6068949;23;20167;-76
2024/02/10 04:05:40;;;;;;;8.13;6.10;;;;;;;9.05;100.00;98551.84;6069589;23;20173;-76
2024/02/10 04:08:09;;;;;;;6.47;4.80;;;;;;;9.04;100.00;98552.97;6068693;23;20270;-75
2024/02/10 04:10:36;;;;;;;7.80;5.73;;;;;;;9.04;100.00;98560.84;6070178;23;20189;-76
2024/02/10 04:13:05;;;;;;;7.17;5.53;;;;;;;9.03;100.00;98559.34;6034168;23;20178;-76
2024/02/10 04:15:32;;;;;;;7.67;5.70;;;;;;;9.02;100.00;98560.47;6070111;23;20170;-77
2024/02/10 04:17:59;;;;;;;9.17;5.90;;;;;;;9.02;100.00;98555.22;6069670;23;20215;-76
2024/02/10 04:20:26;;;;;;;8.23;5.93;;;;;;;9.01;100.00;98551.81;6070111;23;20158;-76
2024/02/10 04:22:52;;;;;;;6.67;4.90;;;;;;;9.01;100.00;98548.44;6034989;23;20174;-75
2024/02/10 04:25:20;;;;;;;8.53;6.17;;;;;;;8.99;100.00;98554.06;6068587;23;20167;-76
2024/02/10 04:27:46;;;;;;;9.23;6.27;;;;;;;8.98;100.00;98547.28;6070141;23;20193;-76
2024/02/10 04:30:13;;;;;;;7.40;5.83;;;;;;;8.98;100.00;98543.88;6068605;23;20194;-76
2024/02/10 04:32:42;;;;;;;7.30;5.87;;;;;;;8.96;100.00;98544.25;6070135;23;20173;-76
2024/02/10 04:35:09;;;;;;;8.37;5.40;;;;;;;8.96;100.00;98546.13;6069561;23;20167;-76
2024/02/10 04:37:36;;;;;;;7.50;5.43;;;;;;;8.95;100.00;98534.09;6069998;23;20242;-76
2024/02/10 04:40:03;;;;;;;8.03;5.80;;;;;;;8.93;100.00;98544.22;6070203;23;20245;-76
2024/02/10 04:42:31;;;;;;;7.13;4.83;;;;;;;8.91;100.00;98547.22;6070433;23;20169;-76
2024/02/10 04:44:58;;;;;;;8.07;5.30;;;;;;;8.90;100.00;98547.59;6069247;23;20557;-76
2024/02/10 04:47:24;;;;;;;9.87;6.03;;;;;;;8.88;100.00;98541.91;6069817;23;20723;-76
2024/02/10 04:49:51;;;;;;;8.40;4.87;;;;;;;8.87;100.00;98538.56;6070456;23;20179;-75
2024/02/10 04:52:18;;;;;;;7.90;5.77;;;;;;;8.87;100.00;98535.16;6069218;23;20173;-75
2024/02/10 04:54:44;;;;;;;6.60;4.97;;;;;;;8.85;100.00;98532.88;6069846;23;20171;-76
2024/02/10 04:57:11;;;;;;;9.27;5.97;;;;;;;8.84;100.00;98527.97;6068855;23;20505;-76
2024/02/10 04:59:38;;;;;;;9.73;6.93;;;;;;;8.83;100.00;98526.47;6069429;23;20174;-76
2024/02/10 05:02:05;;;;;;;12.60;8.67;;;;;;;8.82;100.00;98530.97;6067809;23;20167;-76
2024/02/10 05:04:31;;;;;;;11.07;8.77;;;;;;;8.80;100.00;98525.31;6069891;23;20177;-75
2024/02/10 05:06:57;;;;;;;15.50;9.10;;;;;;;8.82;100.00;98530.22;6067721;23;20187;-76
2024/02/10 05:09:24;;;;;;;10.70;7.93;;;;;;;8.79;100.00;98530.94;6068973;23;20648;-76
2024/02/10 05:11:50;;;;;;;8.43;6.73;;;;;;;8.79;100.00;98530.94;6069025;23;20170;-76
2024/02/10 05:14:16;;;;;;;7.97;6.67;;;;;;;8.78;100.00;98532.81;6034818;23;20672;-76
2024/02/10 05:16:44;;;;;;;8.40;6.50;;;;;;;8.77;100.00;98535.81;6069845;23;20198;-75
2024/02/10 05:19:13;;;;;;;10.10;7.73;;;;;;;8.77;100.00;98536.56;6069389;23;20165;-76
2024/02/10 05:21:40;;;;;;;12.53;7.80;;;;;;;8.75;100.00;98533.53;6035099;23;20921;-76
2024/02/10 05:24:14;;;;;;;12.83;8.07;;;;;;;8.75;100.00;98530.16;6069758;23;20242;-76
2024/02/10 05:26:42;;;;;;;10.40;6.73;;;;;;;8.74;100.00;98536.53;6070000;23;20248;-76
2024/02/10 05:29:10;;;;;;;13.30;7.00;;;;;;;8.74;100.00;98528.63;6069453;23;20187;-76
2024/02/10 05:31:36;;;;;;;9.13;5.47;;;;;;;8.75;100.00;98532.78;6069000;23;20177;-76
2024/02/10 05:34:05;;;;;;;9.53;5.83;;;;;;;8.73;100.00;98535.00;6033966;23;20520;-76
2024/02/10 05:36:34;;;;;;;6.80;4.83;;;;;;;8.73;100.00;98533.16;6068640;23;20187;-76
2024/02/10 05:39:02;;;;;;;5.80;4.50;;;;;;;8.72;100.00;98531.66;6033905;23;20230;-76
2024/02/10 05:41:28;;;;;;;6.53;4.70;;;;;;;8.73;100.00;98537.66;6034613;23;20185;-76
2024/02/10 05:43:54;;;;;;;7.27;5.20;;;;;;;8.71;100.00;98534.63;6069076;23;20163;-76
2024/02/10 05:46:20;;;;;;;6.47;4.83;;;;;;;8.71;100.00;98532.00;6068771;23;20612;-76
2024/02/10 05:48:47;;;;;;;8.83;5.53;;;;;;;8.70;100.00;98533.13;6034921;23;20174;-75
2024/02/10 05:51:14;;;;;;;9.77;5.50;;;;;;;8.70;100.00;98533.84;6069483;23;20186;-76
2024/02/10 05:53:42;;;;;;;10.63;4.83;;;;;;;8.71;100.00;98532.00;6069881;23;20512;-76
2024/02/10 05:56:08;;;;;;;8.13;5.63;;;;;;;8.69;100.00;98529.72;6069133;23;20179;-75
2024/02/10 05:58:35;;;;;;;10.40;5.77;;;;;;;8.70;100.00;98543.66;6071429;23;20234;-75
2024/02/10 06:01:01;;;;;;;9.73;5.63;;;;;;;8.69;100.00;98529.72;6070739;23;20162;-76
2024/02/10 06:03:29;;;;;;;7.43;5.63;;;;;;;8.69;100.00;98542.88;6071017;23;20656;-76
2024/02/10 06:05:55;;;;;;;7.00;5.30;;;;;;;8.69;100.00;98545.50;6071534;23;20236;-76
2024/02/10 06:08:23;;;;;;;8.77;6.13;;;;;;;8.69;100.00;98545.50;6034270;23;20205;-75
2024/02/10 06:10:50;;;;;;;8.37;6.63;;;;;;;8.68;100.00;98546.63;6071695;23;20197;-76
2024/02/10 06:13:17;;;;;;;7.67;5.90;;;;;;;8.68;100.00;98551.91;6070507;23;20167;-76
2024/02/10 06:15:44;;;;;;;8.03;6.13;;;;;;;8.68;100.00;98561.66;6071810;23;20593;-76
2024/02/10 06:18:10;;;;;;;11.80;5.97;;;;;;;8.66;100.00;98559.41;6070699;23;20190;-77
2024/02/10 06:20:39;;;;;;;7.87;5.50;;;;;;;8.66;100.00;98554.13;6071442;23;20513;-76
2024/02/10 06:23:06;;;;;;;10.63;5.90;;;;;;;8.65;100.00;98559.75;6071454;23;20172;-76
2024/02/10 06:25:33;;;;;;;11.53;5.90;;;;;;;8.65;100.00;98562.38;6071207;23;20159;-76
2024/02/10 06:28:00;;;;;;;9.30;5.70;;;;;;;8.65;100.00;98570.28;6035788;23;20280;-76
2024/02/10 06:30:30;;;;;;;11.37;5.53;;;;;;;8.63;100.00;98568.00;6071169;23;20188;-76
2024/02/10 06:32:58;;;;;;;10.87;5.93;;;;;;;8.63;100.00;98575.13;6071478;23;20165;-76
2024/02/10 06:35:25;;;;;;;9.97;6.40;;;;;;;8.63;100.00;98580.38;6070585;23;20199;-76
2024/02/10 06:37:51;;;;;;;9.27;6.17;;;;;;;8.62;100.00;98576.25;6070970;23;20192;-75
2024/02/10 06:40:18;;;;;;;7.93;5.63;;;;;;;8.61;100.00;98585.25;6070795;23;20177;-76
2024/02/10 06:42:48;;;;;;;10.53;5.53;;;;;;;8.60;100.00;98587.13;6070177;23;20163;-75
2024/02/10 06:45:15;;;;;;;8.43;5.37;;;;;;;8.59;100.00;98595.41;6035350;23;20177;-76
2024/02/10 06:47:43;;;;;;;12.40;7.90;;;;;;;8.59;100.00;98603.28;6070298;23;20197;-76
2024/02/10 06:50:11;;;;;;;14.27;8.07;;;;;;;8.58;100.00;98596.50;6070662;23;20184;-75
2024/02/10 06:52:38;;;;;;;21.37;10.60;;;;;;;8.57;100.00;98595.75;6069462;23;20177;-76
2024/02/10 06:55:06;;;;;;;16.33;9.63;;;;;;;8.58;100.00;98599.91;6071333;23;20167;-75
2024/02/10 06:57:32;;;;;;;16.13;9.33;;;;;;;8.57;100.00;98598.38;6069692;23;20827;-76
2024/02/10 07:00:05;;;;;;;15.50;9.60;;;;;;;8.59;100.00;98595.41;6071474;23;20165;-76
2024/02/10 07:02:31;;;;;;;17.93;11.77;;;;;;;8.59;100.00;98590.88;6069895;23;20180;-76
2024/02/10 07:04:57;;;;;;;20.60;13.47;;;;;;;8.59;100.00;98595.41;6070503;23;20178;-75
2024/02/10 07:07:24;;;;;;;19.60;13.37;;;;;;;8.61;100.00;98587.91;6069194;23;20189;-76
2024/02/10 07:09:51;;;;;;;16.57;12.23;;;;;;;8.61;100.00;98585.25;6070259;23;20186;-76
2024/02/10 07:12:17;;;;;;;14.80;10.20;;;;;;;8.61;100.00;98580.78;6070227;23;20172;-76
2024/02/10 07:14:44;;;;;;;13.47;8.57;;;;;;;8.61;100.00;98583.41;6070845;23;20173;-76
2024/02/10 07:17:12;;;;;;;10.17;7.17;;;;;;;8.61;100.00;98586.03;6070291;23;20190;-76
2024/02/10 07:19:42;;;;;;;14.40;7.53;;;;;;;8.60;100.00;98587.13;6069536;23;20189;-76
2024/02/10 07:22:09;;;;;;;14.20;8.43;;;;;;;8.59;100.00;98595.41;6070881;23;20246;-76
2024/02/10 07:24:36;;;;;;;12.80;8.30;;;;;;;8.58;100.00;98596.50;6069358;23;20175;-76
2024/02/10 07:27:03;;;;;;;13.93;9.53;;;;;;;8.56;100.00;98594.25;6070444;23;20281;-77
2024/02/10 07:29:34;;;;;;;11.83;9.30;;;;;;;8.55;100.00;98597.97;6069715;23;20174;-76
2024/02/10 07:32:01;;;;;;;14.07;9.17;;;;;;;8.52;100.00;98590.81;6070081;23;20192;-76
2024/02/10 07:34:29;;;;;;;14.67;9.67;;;;;;;8.49;100.00;98596.03;6068971;23;20599;-76
2024/02/10 07:36:56;;;;;;;15.50;10.23;;;;;;;8.47;100.00;98604.28;6069508;23;20190;-76
2024/02/10 07:39:25;;;;;;;13.57;8.93;;;;;;;8.44;100.00;98612.13;6068610;23;20177;-76
2024/02/10 07:41:51;;;;;;;13.23;8.33;;;;;;;8.42;100.00;98612.50;6070307;23;20245;-76
2024/02/10 07:44:18;;;;;;;17.40;9.83;;;;;;;8.39;100.00;98607.94;6033953;23;20720;-75
2024/02/10 07:46:45;;;;;;;14.33;9.77;;;;;;;8.39;100.00;98605.31;6068832;23;20192;-75
2024/02/10 07:49:13;;;;;;;12.57;8.93;;;;;;;8.38;100.00;98619.56;6070152;23;20165;-75
2024/02/10 07:51:46;;;;;;;12.00;8.93;;;;;;;8.36;100.00;98608.66;6070148;23;20528;-75
2024/02/10 07:54:12;;;;;;;13.63;8.20;;;;;;;8.38;100.00;98616.94;6070005;23;20226;-75
2024/02/10 07:56:41;;;;;;;11.10;7.50;;;;;;;8.37;100.00;98622.56;6068870;23;20195;-75
2024/02/10 07:59:08;;;;;;;16.43;8.33;;;;;;;8.41;100.00;98632.03;6069720;23;20263;-75
2024/02/10 08:01:35;;;;;;;11.47;7.83;;;;;;;8.45;100.00;98640.69;6068369;23;20223;-75
2024/02/10 08:04:04;;;;;;;16.17;8.47;;;;;;;8.50;100.00;98637.75;6068908;23;20170;-75
2024/02/10 08:06:32;;;;;;;14.50;8.47;;;;;;;8.58;100.00;98635.94;6068240;23;20190;-75
2024/02/10 08:09:02;;;;;;;18.53;9.00;;;;;;;8.67;100.00;98631.19;6035585;23;20181;-75
2024/02/10 08:11:28;;;;;;;16.07;10.00;;;;;;;8.74;100.00;98641.78;6069717;23;20654;-75
2024/02/10 08:13:56;;;;;;;16.87;9.97;;;;;;;8.81;100.00;98639.97;6070477;23;20167;-75
2024/02/10 08:16:25;;;;;;;12.07;8.93;;;;;;;8.89;100.00;98646.06;6069816;23;20174;-75
2024/02/10 08:18:52;;;;;;;14.13;8.77;;;;;;;8.99;100.00;98648.06;6034899;23;20185;-75
2024/02/10 08:21:22;;;;;;;15.90;9.43;;;;;;;9.06;100.00;98643.63;6070479;23;20162;-75
2024/02/10 08:23:49;;;;;;;14.53;8.97;;;;;;;9.12;100.00;98644.81;6070473;23;20765;-75
2024/02/10 08:26:17;;;;;;;16.03;9.13;;;;;;;9.20;100.00;98640.38;6069731;23;20959;-75
2024/02/10 08:28:46;;;;;;;16.07;9.33;;;;;;;9.28;100.00;98648.00;6034579;23;20183;-75
2024/02/10 08:31:13;;;;;;;18.47;9.33;;;;;;;9.34;100.00;98646.53;6035210;23;20248;-75
2024/02/10 08:33:44;;;;;;;15.80;9.90;;;;;;;9.40;100.00;98646.94;6070074;23;20174;-75
2024/02/10 08:36:13;;;;;;;19.53;10.37;;;;;;;9.47;100.00;98649.66;6070428;23;20174;-75
2024/02/10 08:38:39;;;;;;;19.50;9.97;;;;;;;9.53;100.00;98662.09;6069498;23;20619;-75
2024/02/10 08:41:05;;;;;;;15.00;9.73;;;;;;;9.57;100.00;98670.81;6070280;23;20508;-75
2024/02/10 08:43:36;;;;;;;18.93;9.80;;;;;;;9.62;100.00;98670.47;6068687;23;20167;-75
2024/02/10 08:46:02;;;;;;;18.67;10.23;;;;;;;9.66;100.00;98671.25;6034510;23;20472;-75
2024/02/10 08:48:29;;;;;;;15.70;8.97;;;;;;;9.70;100.00;98673.91;6067391;23;20214;-75
2024/02/10 08:50:56;;;;;;;14.40;9.07;;;;;;;9.73;100.00;98679.22;6061373;23;20206;-75
2024/02/10 08:53:23;;;;;;;16.60;9.13;;;;;;;9.76;100.00;98680.34;6069024;23;20173;-75
2024/02/10 08:55:50;;;;;;;15.67;9.60;;;;;;;9.79;100.00;98672.47;6069736;23;20195;-75
2024/02/10 08:58:19;;;;;;;12.80;8.93;;;;;;;9.82;100.00;98671.75;6069280;23;20599;-75
2024/02/10 09:00:47;;;;;;;15.23;9.60;;;;;;;9.86;100.00;98669.91;6070095;23;20171;-75
2024/02/10 09:03:13;;;;;;;16.57;10.20;;;;;;;9.87;100.00;98676.69;6070232;23;20164;-76
2024/02/10 09:05:40;;;;;;;16.67;9.77;;;;;;;9.91;100.00;98674.84;6069657;23;20167;-75
2024/02/10 09:08:07;;;;;;;13.93;9.23;;;;;;;9.93;100.00;98671.84;6068678;23;20190;-75
2024/02/10 09:10:34;;;;;;;18.47;9.37;;;;;;;9.94;100.00;98668.81;6069240;23;20667;-75
2024/02/10 09:13:02;;;;;;;16.90;9.83;;;;;;;9.97;100.00;98667.34;6035197;23;20179;-75
2024/02/10 09:15:29;;;;;;;15.77;9.60;;;;;;;10.00;100.00;98674.53;6069760;23;20167;-75
2024/02/10 09:17:57;;;;;;;13.70;9.90;;;;;;;10.03;100.00;98676.41;6069696;23;20210;-75
2024/02/10 09:20:26;;;;;;;16.20;10.10;;;;;;;10.06;100.00;98679.13;6069319;23;20164;-75
2024/02/10 09:22:53;;;;;;;15.33;9.67;;;;;;;10.12;100.00;98674.25;6069804;23;20169;-75
2024/02/10 09:25:19;;;;;;;15.10;9.03;;;;;;;10.16;100.00;98670.53;6069778;23;20611;-75
2024/02/10 09:27:46;;;;;;;16.53;9.07;;;;;;;10.22;100.00;98674.31;6068925;23;20192;-75
2024/02/10 09:30:13;;;;;;;11.63;8.63;;;;;;;10.29;100.00;98676.22;6070596;23;20171;-75
2024/02/10 09:32:40;;;;;;;15.30;9.13;;;;;;;10.34;100.00;98676.63;6070637;23;20179;-75
2024/02/10 09:35:08;;;;;;;12.33;8.20;;;;;;;10.41;100.00;98671.38;6036934;23;20562;-75
2024/02/10 09:37:34;;;;;;;14.97;8.97;;;;;;;10.49;100.00;98686.13;6070856;23;20223;-75
2024/02/10 09:40:02;;;;;;;15.33;8.83;;;;;;;10.56;100.00;98682.78;6071788;23;20173;-75
2024/02/10 09:42:31;;;;;;;12.87;8.87;;;;;;;10.61;100.00;98677.16;6071189;23;20224;-75
2024/02/10 09:44:58;;;;;;;13.17;8.33;;;;;;;10.65;100.00;98686.59;6071581;23;20182;-75
2024/02/10 09:47:24;;;;;;;14.57;8.43;;;;;;;10.71;100.00;98689.63;6071055;23;20588;-75
2024/02/10 09:49:52;;;;;;;11.00;8.37;;;;;;;10.77;100.00;98685.50;6071623;23;20175;-75
2024/02/10 09:52:23;;;;;;;13.03;8.53;;;;;;;10.84;100.00;98682.88;6071455;23;20220;-75
2024/02/10 09:54:49;;;;;;;14.00;7.97;;;;;;;10.90;100.00;98686.66;6036714;23;20174;-75
2024/02/10 09:57:15;;;;;;;9.80;6.70;;;;;;;10.94;100.00;98682.94;6071142;23;20185;-75
2024/02/10 09:59:42;;;;;;;15.03;8.17;;;;;;;10.98;100.00;98681.03;6034922;23;20199;-75
2024/02/10 10:02:09;;;;;;;13.00;7.00;;;;;;;11.03;100.00;98683.31;6071295;23;20170;-76
2024/02/10 10:04:35;;;;;;;10.13;6.90;;;;;;;11.08;100.00;98687.50;6070983;23;20682;-75
2024/02/10 10:07:01;;;;;;;8.77;6.70;;;;;;;11.13;100.00;98692.41;6070495;23;20526;-75
2024/02/10 10:09:30;;;;;;;9.50;6.63;;;;;;;11.15;100.00;98695.41;6036679;23;20753;-75
2024/02/10 10:11:56;;;;;;;9.93;6.50;;;;;;;11.18;100.00;98698.06;6069982;23;20189;-75
2024/02/10 10:14:23;;;;;;;8.30;5.50;;;;;;;11.21;100.00;98691.28;6070660;23;20182;-75
2024/02/10 10:16:57;;;;;;;7.53;5.10;;;;;;;11.24;100.00;98690.53;6070603;23;20489;-75
2024/02/10 10:19:26;;;;;;;9.93;5.43;;;;;;;11.26;100.00;98691.69;6071365;23;20530;-75
2024/02/10 10:21:53;;;;;;;8.10;5.77;;;;;;;11.27;100.00;98687.91;6070558;23;20171;-75
2024/02/10 10:24:19;;;;;;;7.93;4.57;;;;;;;11.29;100.00;98690.91;6071389;23;20175;-75
2024/02/10 10:26:50;;;;;;;8.67;5.57;;;;;;;11.33;100.00;98685.66;6070715;23;20191;-75
2024/02/10 10:29:19;;;;;;;9.47;6.03;;;;;;;11.38;100.00;98686.03;6071130;23;20567;-75
2024/02/10 10:31:48;;;;;;;6.87;4.77;;;;;;;11.41;100.00;98689.81;6070488;23;20186;-75
2024/02/10 10:34:19;;;;;;;7.33;4.50;;;;;;;11.42;100.00;98686.78;6036183;23;20185;-76
2024/02/10 10:36:48;;;;;;;6.47;4.40;;;;;;;11.44;100.00;98684.53;6069938;23;20216;-76
2024/02/10 10:39:15;;;;;;;6.93;4.77;;;;;;;11.49;100.00;98686.06;6072326;23;20165;-77
2024/02/10 10:41:44;;;;;;;5.43;4.30;;;;;;;11.51;100.00;98675.84;6070884;23;20180;-75
2024/02/10 10:44:13;;;;;;;6.30;4.23;;;;;;;11.54;100.00;98680.41;6070642;23;20172;-76
2024/02/10 10:46:39;;;;;;;5.80;4.27;;;;;;;11.56;100.00;98672.84;6070225;23;20822;-75
2024/02/10 10:49:09;;;;;;;6.67;4.30;;;;;;;11.60;100.00;98671.72;6070902;23;20488;-75
2024/02/10 10:51:45;;;;;;;5.87;4.37;;;;;;;11.64;100.00;98674.38;6070212;23;20265;-74
2024/02/10 10:54:13;;;;;;;5.23;3.77;;;;;;;11.67;100.00;98663.81;6069846;23;20180;-75
2024/02/10 10:56:39;;;;;;;7.13;4.40;;;;;;;11.71;100.00;98666.44;6068932;23;20189;-75
2024/02/10 10:59:09;;;;;;;5.30;4.03;;;;;;;11.75;100.00;98654.72;6069872;23;20169;-75
2024/02/10 11:01:38;;;;;;;7.00;4.50;;;;;;;11.78;100.00;98653.97;6034017;23;20801;-75
2024/02/10 11:04:07;;;;;;;7.03;4.50;;;;;;;11.82;100.00;98665.31;6039909;23;20170;-75
2024/02/10 11:06:35;;;;;;;5.50;4.10;;;;;;;11.87;100.00;98650.94;6038525;23;20653;-75
2024/02/10 11:09:04;;;;;;;5.63;3.53;;;;;;;11.90;100.00;98647.56;6040718;23;20171;-75
2024/02/10 11:11:35;;;;;;;6.53;3.80;;;;;;;11.95;100.00;98642.63;6041768;23;20703;-74
2024/02/10 11:14:09;;;;;;;6.83;3.93;;;;;;;11.99;100.00;98640.72;6040299;23;20243;-75
2024/02/10 11:16:36;;;;;;;5.50;3.97;;;;;;;12.01;100.00;98645.66;6004666;23;20191;-76
2024/02/10 11:19:03;;;;;;;4.90;3.33;;;;;;;12.04;100.00;98643.00;6041506;23;20174;-76
2024/02/10 11:21:31;;;;;;;5.93;3.87;;;;;;;12.07;100.00;98644.84;6007495;23;20168;-76
2024/02/10 11:23:59;;;;;;;4.57;3.50;;;;;;;12.10;100.00;98640.69;6041277;23;20175;-75
2024/02/10 11:26:27;;;;;;;6.00;3.47;;;;;;;12.13;100.00;98642.59;6042390;23;20167;-75
2024/02/10 11:29:00;;;;;;;4.43;3.57;;;;;;;12.15;100.00;98637.66;6041577;23;20489;-76